Airfield :
LOGIN :

Register | Disclaimer

   EN    FR    IT 

 










Legend :    VFR   Marginal VFR   IFR   Intensive IFR   Very Intensive IFR
Visi :
Ceiling :
>= 8 km
>= 3000ft
5 to 8 km
1000 to 3000 ft
1500m to 5 km
500 to 1000 ft
800 to 1500m
200 to 500 ft
< 800m
< 200 ft
Symbols :   Thunderstorms  Fog  Heavy snow  Heavy precipitations  Wind > 20 kt
SIGMETs :     Misc.  Thunderstorms  Icing  Turbulence  Mountain Waves  Volcanic Ashes







- Airport Elevation : 1470 ft


LSMD - Dubendorf Military

CURRENT METAR :
  • 290450Z AUTO VRB01KT 0350NDV R11/P2000D R29/0325V0700D FZFG NCD M02/M03 Q1019 RMK

EXPIRED METARs :
  • 290350Z AUTO VRB02KT 0750NDV R11/0700VP2000U R29/P2000N BR NCD M00/M01 Q1019 RMK
  • 290250Z AUTO 13002KT 0300NDV R11/0350V0650N R29/P2000N BR NCD 00/M00 Q1019 RMK

Expired Forecast.
No reported NOTAMs for that airfield.



MET'MAP, your aeronautical weather chart ! - Copyright ORBIFLY December 2007 - Disclaimer

ORBIFLY MET'MAP TEAM :

Programming & Development : Alexandra Zaïnal
Concept & Development : Baudouin d'Aumeries
Co-Development & Prog : Marc-Olivier Méhu
Technical & hardware support : Manuel Goepfert

Contact : metmap@orbifly.com




SOURCES & CREDITS :

   NOAA